17°C Temp
11°C Dewpoint
68% Humidity
Temperature
5 KM/H
3 MPH
3 KTS
270°
Due West

Wind Speed
Clear
Conditions
Pressure 1009.92 (hPa) - 29.82 (in)
Visibility 6.2 (mi) - 10.0 (km)

Current Conditions
LEMG
Location 9(km)
Metar :LEMG 260330Z 27003KT 250V320 CAVOK 17/11 Q1010 NOSIG
Mon 26th September 05:30 am

Airport
  Metar Aviation API Data Provided by https://www.checkwx.com/ PHP scripts by weather34.com ©2022